Airfield :
LOGIN :

Register | Disclaimer

   EN    FR    IT 

 










Legend :    VFR   Marginal VFR   IFR   Intensive IFR   Very Intensive IFR
Visi :
Ceiling :
>= 8 km
>= 3000ft
5 to 8 km
1000 to 3000 ft
1500m to 5 km
500 to 1000 ft
800 to 1500m
200 to 500 ft
< 800m
< 200 ft
Symbols :   Thunderstorms  Fog  Heavy snow  Heavy precipitations  Wind > 20 kt
SIGMETs :     Misc.  Thunderstorms  Icing  Turbulence  Mountain Waves  Volcanic Ashes






- Airport Elevation : 863 ft
- IATA code : ZAZ


LEZG - Zaragoza Aragon

CURRENT METAR :
  • 151230Z 31007KT 260V350 9999 FEW035 SCT065 11/04 Q1001

EXPIRED METARs :
  • 151200Z 28003KT 240V330 9999 FEW055 10/06 Q1001
  • 151130Z 32003KT 250V020 9999 FEW055 09/05 Q1001
  • 151100Z 32004KT 280V360 9999 FEW055 09/05 Q1002
  • 151030Z 35003KT 300V030 9999 FEW045 09/05 Q1002
  • 151000Z VRB02KT 9999 FEW045 08/05 Q1002

TAF TAF LEZG
Valid from the 15 at 12:00 until the 16 at 12:00 UTC


151100Z 1512/1612 30012KT 9999 SCT050 TX09/1513Z TN03/1606Z
TEMPO 1513/1517 30016G28KT
TEMPO 1523/1612 24010KT



MET'MAP, your aeronautical weather chart ! - Copyright ORBIFLY December 2007 - Disclaimer

ORBIFLY MET'MAP TEAM :

Programming & Development : Alexandra Zaïnal
Concept & Development : Baudouin d'Aumeries
Co-Development & Prog : Marc-Olivier Méhu
Technical & hardware support : Manuel Goepfert

Contact : metmap@orbifly.com




SOURCES & CREDITS :

   NOAA